sensor_id;sensor_type;location;lat;lon;timestamp;P1;durP1;ratioP1;P2;durP2;ratioP2
83199;SDS011;73092;49.132;8.920;2024-02-21T00:00:53;14.77;;;5.70;;
83199;SDS011;73092;49.132;8.920;2024-02-21T00:03:18;26.33;;;6.43;;
83199;SDS011;73092;49.132;8.920;2024-02-21T00:05:44;21.38;;;5.72;;
83199;SDS011;73092;49.132;8.920;2024-02-21T00:08:10;20.70;;;6.33;;
83199;SDS011;73092;49.132;8.920;2024-02-21T00:10:35;14.05;;;6.05;;
83199;SDS011;73092;49.132;8.920;2024-02-21T00:13:01;19.33;;;7.20;;
83199;SDS011;73092;49.132;8.920;2024-02-21T00:15:26;14.70;;;5.50;;
83199;SDS011;73092;49.132;8.920;2024-02-21T00:17:52;15.20;;;6.03;;
83199;SDS011;73092;49.132;8.920;2024-02-21T00:20:17;13.93;;;5.53;;
83199;SDS011;73092;49.132;8.920;2024-02-21T00:22:43;13.68;;;5.43;;
83199;SDS011;73092;49.132;8.920;2024-02-21T00:25:09;19.73;;;5.47;;
83199;SDS011;73092;49.132;8.920;2024-02-21T00:27:34;16.80;;;5.85;;
83199;SDS011;73092;49.132;8.920;2024-02-21T00:30:00;16.50;;;5.85;;
83199;SDS011;73092;49.132;8.920;2024-02-21T00:32:25;9.95;;;5.28;;
83199;SDS011;73092;49.132;8.920;2024-02-21T00:34:50;15.57;;;5.57;;
83199;SDS011;73092;49.132;8.920;2024-02-21T00:37:16;17.90;;;6.00;;
83199;SDS011;73092;49.132;8.920;2024-02-21T00:39:41;13.50;;;6.30;;
83199;SDS011;73092;49.132;8.920;2024-02-21T00:42:07;12.98;;;6.03;;
83199;SDS011;73092;49.132;8.920;2024-02-21T00:44:33;16.05;;;5.40;;
83199;SDS011;73092;49.132;8.920;2024-02-21T00:46:58;16.30;;;5.47;;
83199;SDS011;73092;49.132;8.920;2024-02-21T00:49:24;20.73;;;6.18;;
83199;SDS011;73092;49.132;8.920;2024-02-21T00:51:49;14.63;;;5.77;;
83199;SDS011;73092;49.132;8.920;2024-02-21T00:54:14;16.92;;;5.80;;
83199;SDS011;73092;49.132;8.920;2024-02-21T00:56:41;13.75;;;5.43;;
83199;SDS011;73092;49.132;8.920;2024-02-21T00:59:06;19.33;;;6.78;;
83199;SDS011;73092;49.132;8.920;2024-02-21T01:01:32;16.07;;;5.70;;
83199;SDS011;73092;49.132;8.920;2024-02-21T01:03:57;16.27;;;6.00;;
83199;SDS011;73092;49.132;8.920;2024-02-21T01:06:22;17.90;;;5.33;;
83199;SDS011;73092;49.132;8.920;2024-02-21T01:08:48;19.63;;;5.28;;
83199;SDS011;73092;49.132;8.920;2024-02-21T01:11:14;15.40;;;5.18;;
83199;SDS011;73092;49.132;8.920;2024-02-21T01:13:40;14.63;;;5.70;;
83199;SDS011;73092;49.132;8.920;2024-02-21T01:16:06;14.95;;;5.93;;
83199;SDS011;73092;49.132;8.920;2024-02-21T01:18:34;18.57;;;6.50;;
83199;SDS011;73092;49.132;8.920;2024-02-21T01:21:00;13.30;;;6.35;;
83199;SDS011;73092;49.132;8.920;2024-02-21T01:23:25;14.27;;;5.75;;
83199;SDS011;73092;49.132;8.920;2024-02-21T01:25:51;15.13;;;5.20;;
83199;SDS011;73092;49.132;8.920;2024-02-21T01:28:17;19.30;;;5.38;;
83199;SDS011;73092;49.132;8.920;2024-02-21T01:30:43;13.30;;;5.60;;
83199;SDS011;73092;49.132;8.920;2024-02-21T01:33:08;16.67;;;5.30;;
83199;SDS011;73092;49.132;8.920;2024-02-21T01:35:34;13.93;;;6.10;;
83199;SDS011;73092;49.132;8.920;2024-02-21T01:37:59;12.17;;;5.40;;
83199;SDS011;73092;49.132;8.920;2024-02-21T01:40:25;12.70;;;5.30;;
83199;SDS011;73092;49.132;8.920;2024-02-21T01:42:50;12.55;;;4.93;;
83199;SDS011;73092;49.132;8.920;2024-02-21T01:45:18;18.52;;;5.25;;
83199;SDS011;73092;49.132;8.920;2024-02-21T01:47:44;14.40;;;5.53;;
83199;SDS011;73092;49.132;8.920;2024-02-21T01:50:09;17.67;;;4.97;;
83199;SDS011;73092;49.132;8.920;2024-02-21T01:52:35;15.55;;;5.50;;
83199;SDS011;73092;49.132;8.920;2024-02-21T01:55:01;19.58;;;5.43;;
83199;SDS011;73092;49.132;8.920;2024-02-21T01:57:27;15.32;;;5.53;;
83199;SDS011;73092;49.132;8.920;2024-02-21T01:59:54;19.63;;;4.75;;
83199;SDS011;73092;49.132;8.920;2024-02-21T02:02:19;20.30;;;5.30;;
83199;SDS011;73092;49.132;8.920;2024-02-21T02:04:45;14.73;;;5.90;;
83199;SDS011;73092;49.132;8.920;2024-02-21T02:07:11;14.32;;;5.60;;
83199;SDS011;73092;49.132;8.920;2024-02-21T02:09:36;18.03;;;5.57;;
83199;SDS011;73092;49.132;8.920;2024-02-21T02:12:01;16.37;;;4.67;;
83199;SDS011;73092;49.132;8.920;2024-02-21T02:14:27;21.08;;;5.93;;
83199;SDS011;73092;49.132;8.920;2024-02-21T02:16:52;9.87;;;5.47;;
83199;SDS011;73092;49.132;8.920;2024-02-21T02:19:18;25.50;;;5.97;;
83199;SDS011;73092;49.132;8.920;2024-02-21T02:21:46;13.15;;;6.15;;
83199;SDS011;73092;49.132;8.920;2024-02-21T02:24:18;12.95;;;5.28;;
83199;SDS011;73092;49.132;8.920;2024-02-21T02:26:44;16.95;;;6.05;;
83199;SDS011;73092;49.132;8.920;2024-02-21T02:29:10;14.75;;;6.13;;
83199;SDS011;73092;49.132;8.920;2024-02-21T02:31:36;11.70;;;5.38;;
83199;SDS011;73092;49.132;8.920;2024-02-21T02:34:02;17.25;;;5.65;;
83199;SDS011;73092;49.132;8.920;2024-02-21T02:36:28;14.70;;;6.38;;
83199;SDS011;73092;49.132;8.920;2024-02-21T02:38:54;14.43;;;5.13;;
83199;SDS011;73092;49.132;8.920;2024-02-21T02:41:19;14.07;;;5.30;;
83199;SDS011;73092;49.132;8.920;2024-02-21T02:43:45;11.83;;;5.03;;
83199;SDS011;73092;49.132;8.920;2024-02-21T02:46:10;18.13;;;5.95;;
83199;SDS011;73092;49.132;8.920;2024-02-21T02:48:36;11.77;;;5.20;;
83199;SDS011;73092;49.132;8.920;2024-02-21T02:51:03;15.75;;;7.70;;
83199;SDS011;73092;49.132;8.920;2024-02-21T02:53:28;8.18;;;4.88;;
83199;SDS011;73092;49.132;8.920;2024-02-21T02:55:54;14.07;;;5.97;;
83199;SDS011;73092;49.132;8.920;2024-02-21T02:58:19;19.40;;;5.22;;
83199;SDS011;73092;49.132;8.920;2024-02-21T03:00:45;14.77;;;5.27;;
83199;SDS011;73092;49.132;8.920;2024-02-21T03:03:10;14.27;;;5.03;;
83199;SDS011;73092;49.132;8.920;2024-02-21T03:05:35;12.20;;;4.70;;
83199;SDS011;73092;49.132;8.920;2024-02-21T03:08:01;17.63;;;5.55;;
83199;SDS011;73092;49.132;8.920;2024-02-21T03:10:26;21.10;;;6.18;;
83199;SDS011;73092;49.132;8.920;2024-02-21T03:12:51;19.50;;;5.50;;
83199;SDS011;73092;49.132;8.920;2024-02-21T03:15:18;15.27;;;5.25;;
83199;SDS011;73092;49.132;8.920;2024-02-21T03:17:43;23.17;;;5.90;;
83199;SDS011;73092;49.132;8.920;2024-02-21T03:20:09;12.47;;;5.20;;
83199;SDS011;73092;49.132;8.920;2024-02-21T03:22:35;14.27;;;5.05;;
83199;SDS011;73092;49.132;8.920;2024-02-21T03:25:01;14.60;;;4.82;;
83199;SDS011;73092;49.132;8.920;2024-02-21T03:27:27;18.95;;;5.45;;
83199;SDS011;73092;49.132;8.920;2024-02-21T03:29:52;14.60;;;4.50;;
83199;SDS011;73092;49.132;8.920;2024-02-21T03:32:18;13.15;;;4.82;;
83199;SDS011;73092;49.132;8.920;2024-02-21T03:34:43;17.52;;;4.95;;
83199;SDS011;73092;49.132;8.920;2024-02-21T03:37:08;13.93;;;4.63;;
83199;SDS011;73092;49.132;8.920;2024-02-21T03:39:34;24.03;;;5.47;;
83199;SDS011;73092;49.132;8.920;2024-02-21T03:41:59;18.40;;;5.60;;
83199;SDS011;73092;49.132;8.920;2024-02-21T03:44:30;17.23;;;4.85;;
83199;SDS011;73092;49.132;8.920;2024-02-21T03:46:56;20.98;;;5.65;;
83199;SDS011;73092;49.132;8.920;2024-02-21T03:49:21;20.77;;;4.47;;
83199;SDS011;73092;49.132;8.920;2024-02-21T03:51:47;15.80;;;4.90;;
83199;SDS011;73092;49.132;8.920;2024-02-21T03:54:12;10.98;;;4.53;;
83199;SDS011;73092;49.132;8.920;2024-02-21T03:56:38;13.18;;;5.03;;
83199;SDS011;73092;49.132;8.920;2024-02-21T03:59:05;10.77;;;4.63;;
83199;SDS011;73092;49.132;8.920;2024-02-21T04:01:36;12.95;;;5.00;;
83199;SDS011;73092;49.132;8.920;2024-02-21T04:04:01;16.33;;;4.80;;
83199;SDS011;73092;49.132;8.920;2024-02-21T04:06:27;15.90;;;5.07;;
83199;SDS011;73092;49.132;8.920;2024-02-21T04:08:52;10.82;;;4.68;;
83199;SDS011;73092;49.132;8.920;2024-02-21T04:11:18;14.48;;;4.55;;
83199;SDS011;73092;49.132;8.920;2024-02-21T04:13:44;13.05;;;5.05;;
83199;SDS011;73092;49.132;8.920;2024-02-21T04:16:14;13.25;;;3.72;;
83199;SDS011;73092;49.132;8.920;2024-02-21T04:18:39;14.43;;;4.70;;
83199;SDS011;73092;49.132;8.920;2024-02-21T04:21:05;9.75;;;4.93;;
83199;SDS011;73092;49.132;8.920;2024-02-21T04:23:30;13.77;;;4.57;;
83199;SDS011;73092;49.132;8.920;2024-02-21T04:25:55;11.73;;;4.93;;
83199;SDS011;73092;49.132;8.920;2024-02-21T04:28:21;17.87;;;4.13;;
83199;SDS011;73092;49.132;8.920;2024-02-21T04:30:46;11.30;;;4.60;;
83199;SDS011;73092;49.132;8.920;2024-02-21T04:33:11;11.93;;;4.67;;
83199;SDS011;73092;49.132;8.920;2024-02-21T04:35:37;13.20;;;4.70;;
83199;SDS011;73092;49.132;8.920;2024-02-21T04:38:03;10.20;;;4.63;;
83199;SDS011;73092;49.132;8.920;2024-02-21T04:40:29;15.20;;;4.97;;
83199;SDS011;73092;49.132;8.920;2024-02-21T04:42:54;13.00;;;3.93;;
83199;SDS011;73092;49.132;8.920;2024-02-21T04:45:19;13.13;;;4.07;;
83199;SDS011;73092;49.132;8.920;2024-02-21T04:47:44;15.33;;;4.83;;
83199;SDS011;73092;49.132;8.920;2024-02-21T04:50:10;8.32;;;4.63;;
83199;SDS011;73092;49.132;8.920;2024-02-21T04:52:35;15.32;;;5.10;;
83199;SDS011;73092;49.132;8.920;2024-02-21T04:55:01;8.37;;;4.23;;
83199;SDS011;73092;49.132;8.920;2024-02-21T04:57:26;11.77;;;4.17;;
83199;SDS011;73092;49.132;8.920;2024-02-21T04:59:51;14.10;;;5.00;;
83199;SDS011;73092;49.132;8.920;2024-02-21T05:02:17;14.82;;;4.78;;
83199;SDS011;73092;49.132;8.920;2024-02-21T05:04:44;15.35;;;4.80;;
83199;SDS011;73092;49.132;8.920;2024-02-21T05:07:10;12.73;;;4.18;;
83199;SDS011;73092;49.132;8.920;2024-02-21T05:09:36;10.63;;;4.55;;
83199;SDS011;73092;49.132;8.920;2024-02-21T05:12:02;14.98;;;5.22;;
83199;SDS011;73092;49.132;8.920;2024-02-21T05:14:28;10.40;;;4.55;;
83199;SDS011;73092;49.132;8.920;2024-02-21T05:16:53;12.43;;;4.30;;
83199;SDS011;73092;49.132;8.920;2024-02-21T05:19:18;11.65;;;5.15;;
83199;SDS011;73092;49.132;8.920;2024-02-21T05:21:44;10.93;;;4.10;;
83199;SDS011;73092;49.132;8.920;2024-02-21T05:24:09;11.05;;;4.40;;
83199;SDS011;73092;49.132;8.920;2024-02-21T05:26:35;16.10;;;5.63;;
83199;SDS011;73092;49.132;8.920;2024-02-21T05:29:00;15.83;;;4.60;;
83199;SDS011;73092;49.132;8.920;2024-02-21T05:31:28;13.13;;;4.60;;
83199;SDS011;73092;49.132;8.920;2024-02-21T05:34:19;7.07;;;4.15;;
83199;SDS011;73092;49.132;8.920;2024-02-21T05:36:45;10.82;;;3.75;;
83199;SDS011;73092;49.132;8.920;2024-02-21T05:39:11;13.68;;;4.95;;
83199;SDS011;73092;49.132;8.920;2024-02-21T05:41:37;8.48;;;4.45;;
83199;SDS011;73092;49.132;8.920;2024-02-21T05:44:02;14.70;;;4.00;;
83199;SDS011;73092;49.132;8.920;2024-02-21T05:46:28;13.27;;;5.45;;
83199;SDS011;73092;49.132;8.920;2024-02-21T05:48:53;12.87;;;5.20;;
83199;SDS011;73092;49.132;8.920;2024-02-21T05:51:19;16.55;;;5.03;;
83199;SDS011;73092;49.132;8.920;2024-02-21T05:53:44;8.53;;;5.03;;
83199;SDS011;73092;49.132;8.920;2024-02-21T05:56:12;10.20;;;4.17;;
83199;SDS011;73092;49.132;8.920;2024-02-21T05:58:39;19.88;;;4.20;;
83199;SDS011;73092;49.132;8.920;2024-02-21T06:01:04;12.88;;;5.20;;
83199;SDS011;73092;49.132;8.920;2024-02-21T06:03:31;14.15;;;4.78;;
83199;SDS011;73092;49.132;8.920;2024-02-21T06:05:58;15.25;;;5.03;;
83199;SDS011;73092;49.132;8.920;2024-02-21T06:08:24;11.52;;;5.70;;
83199;SDS011;73092;49.132;8.920;2024-02-21T06:10:50;14.07;;;4.57;;
83199;SDS011;73092;49.132;8.920;2024-02-21T06:13:19;13.00;;;4.32;;
83199;SDS011;73092;49.132;8.920;2024-02-21T06:15:46;15.40;;;4.53;;
83199;SDS011;73092;49.132;8.920;2024-02-21T06:18:11;13.55;;;4.88;;
83199;SDS011;73092;49.132;8.920;2024-02-21T06:20:37;12.73;;;5.50;;
83199;SDS011;73092;49.132;8.920;2024-02-21T06:23:05;13.88;;;4.60;;
83199;SDS011;73092;49.132;8.920;2024-02-21T06:25:31;19.50;;;5.18;;
83199;SDS011;73092;49.132;8.920;2024-02-21T06:27:56;9.83;;;4.37;;
83199;SDS011;73092;49.132;8.920;2024-02-21T06:30:21;13.60;;;4.57;;
83199;SDS011;73092;49.132;8.920;2024-02-21T06:32:47;9.67;;;4.80;;
83199;SDS011;73092;49.132;8.920;2024-02-21T06:35:12;19.93;;;6.10;;
83199;SDS011;73092;49.132;8.920;2024-02-21T06:37:37;8.45;;;4.45;;
83199;SDS011;73092;49.132;8.920;2024-02-21T06:40:03;21.25;;;5.05;;
83199;SDS011;73092;49.132;8.920;2024-02-21T06:42:29;18.50;;;5.20;;
83199;SDS011;73092;49.132;8.920;2024-02-21T06:44:54;11.85;;;4.60;;
83199;SDS011;73092;49.132;8.920;2024-02-21T06:47:21;13.95;;;4.97;;
83199;SDS011;73092;49.132;8.920;2024-02-21T06:49:50;15.00;;;5.43;;
83199;SDS011;73092;49.132;8.920;2024-02-21T06:52:17;8.25;;;4.78;;
83199;SDS011;73092;49.132;8.920;2024-02-21T06:54:45;17.42;;;4.85;;
83199;SDS011;73092;49.132;8.920;2024-02-21T06:57:11;10.70;;;4.40;;
83199;SDS011;73092;49.132;8.920;2024-02-21T06:59:36;14.07;;;4.87;;
83199;SDS011;73092;49.132;8.920;2024-02-21T07:02:01;13.53;;;4.37;;
83199;SDS011;73092;49.132;8.920;2024-02-21T07:04:27;12.85;;;4.53;;
83199;SDS011;73092;49.132;8.920;2024-02-21T07:06:54;7.68;;;4.65;;
83199;SDS011;73092;49.132;8.920;2024-02-21T07:09:19;9.45;;;4.72;;
83199;SDS011;73092;49.132;8.920;2024-02-21T07:11:45;9.13;;;5.13;;
83199;SDS011;73092;49.132;8.920;2024-02-21T07:14:10;8.90;;;5.13;;
83199;SDS011;73092;49.132;8.920;2024-02-21T07:16:35;9.47;;;3.97;;
83199;SDS011;73092;49.132;8.920;2024-02-21T07:19:01;4.97;;;3.70;;
83199;SDS011;73092;49.132;8.920;2024-02-21T07:21:27;16.88;;;4.35;;
83199;SDS011;73092;49.132;8.920;2024-02-21T07:23:52;10.43;;;3.85;;
83199;SDS011;73092;49.132;8.920;2024-02-21T07:26:18;12.45;;;4.95;;
83199;SDS011;73092;49.132;8.920;2024-02-21T07:28:43;25.90;;;5.07;;
83199;SDS011;73092;49.132;8.920;2024-02-21T07:31:08;8.37;;;4.30;;
83199;SDS011;73092;49.132;8.920;2024-02-21T07:33:34;10.33;;;3.97;;
83199;SDS011;73092;49.132;8.920;2024-02-21T07:36:00;14.27;;;5.07;;
83199;SDS011;73092;49.132;8.920;2024-02-21T07:38:26;10.00;;;5.70;;
83199;SDS011;73092;49.132;8.920;2024-02-21T07:40:51;9.53;;;5.23;;
83199;SDS011;73092;49.132;8.920;2024-02-21T07:43:16;25.47;;;10.73;;
83199;SDS011;73092;49.132;8.920;2024-02-21T07:45:42;21.07;;;9.07;;
83199;SDS011;73092;49.132;8.920;2024-02-21T07:48:07;22.27;;;9.07;;
83199;SDS011;73092;49.132;8.920;2024-02-21T07:50:32;22.92;;;10.90;;
83199;SDS011;73092;49.132;8.920;2024-02-21T07:52:58;23.20;;;9.23;;
83199;SDS011;73092;49.132;8.920;2024-02-21T07:55:23;27.23;;;9.40;;
83199;SDS011;73092;49.132;8.920;2024-02-21T07:57:49;14.38;;;8.10;;
83199;SDS011;73092;49.132;8.920;2024-02-21T08:00:14;14.02;;;6.60;;
83199;SDS011;73092;49.132;8.920;2024-02-21T08:02:45;15.10;;;5.35;;
83199;SDS011;73092;49.132;8.920;2024-02-21T08:05:11;9.75;;;3.95;;
83199;SDS011;73092;49.132;8.920;2024-02-21T08:07:37;11.75;;;3.90;;
83199;SDS011;73092;49.132;8.920;2024-02-21T08:10:03;10.27;;;4.57;;
83199;SDS011;73092;49.132;8.920;2024-02-21T08:12:29;14.82;;;4.57;;
83199;SDS011;73092;49.132;8.920;2024-02-21T08:14:54;7.87;;;3.83;;
83199;SDS011;73092;49.132;8.920;2024-02-21T08:17:19;13.20;;;3.53;;
83199;SDS011;73092;49.132;8.920;2024-02-21T08:19:44;9.15;;;4.25;;
83199;SDS011;73092;49.132;8.920;2024-02-21T08:22:10;12.53;;;5.73;;
83199;SDS011;73092;49.132;8.920;2024-02-21T08:24:35;11.25;;;4.13;;
83199;SDS011;73092;49.132;8.920;2024-02-21T08:27:00;13.63;;;4.00;;
83199;SDS011;73092;49.132;8.920;2024-02-21T08:29:26;10.93;;;4.33;;
83199;SDS011;73092;49.132;8.920;2024-02-21T08:31:52;9.43;;;4.15;;
83199;SDS011;73092;49.132;8.920;2024-02-21T08:34:18;12.55;;;5.05;;
83199;SDS011;73092;49.132;8.920;2024-02-21T08:36:43;17.07;;;4.43;;
83199;SDS011;73092;49.132;8.920;2024-02-21T08:39:09;11.63;;;5.37;;
83199;SDS011;73092;49.132;8.920;2024-02-21T08:41:34;19.00;;;5.45;;
83199;SDS011;73092;49.132;8.920;2024-02-21T08:44:00;9.63;;;4.93;;
83199;SDS011;73092;49.132;8.920;2024-02-21T08:46:26;15.55;;;5.28;;
83199;SDS011;73092;49.132;8.920;2024-02-21T08:48:53;16.65;;;5.75;;
83199;SDS011;73092;49.132;8.920;2024-02-21T08:51:19;19.80;;;6.15;;
83199;SDS011;73092;49.132;8.920;2024-02-21T08:53:45;11.45;;;5.45;;
83199;SDS011;73092;49.132;8.920;2024-02-21T08:56:11;13.23;;;5.03;;
83199;SDS011;73092;49.132;8.920;2024-02-21T08:58:37;14.48;;;4.85;;
83199;SDS011;73092;49.132;8.920;2024-02-21T09:03:31;16.38;;;5.28;;
83199;SDS011;73092;49.132;8.920;2024-02-21T09:05:57;11.18;;;4.18;;
83199;SDS011;73092;49.132;8.920;2024-02-21T09:08:22;14.43;;;4.93;;
83199;SDS011;73092;49.132;8.920;2024-02-21T09:10:49;7.75;;;4.10;;
83199;SDS011;73092;49.132;8.920;2024-02-21T09:13:14;9.80;;;4.83;;
83199;SDS011;73092;49.132;8.920;2024-02-21T09:15:39;12.33;;;4.03;;
83199;SDS011;73092;49.132;8.920;2024-02-21T09:18:05;14.40;;;4.17;;
83199;SDS011;73092;49.132;8.920;2024-02-21T09:20:30;7.70;;;3.70;;
83199;SDS011;73092;49.132;8.920;2024-02-21T09:22:56;9.60;;;5.07;;
83199;SDS011;73092;49.132;8.920;2024-02-21T09:25:21;14.32;;;5.20;;
83199;SDS011;73092;49.132;8.920;2024-02-21T09:27:47;10.73;;;3.77;;
83199;SDS011;73092;49.132;8.920;2024-02-21T09:30:12;12.33;;;3.53;;
83199;SDS011;73092;49.132;8.920;2024-02-21T09:32:38;8.23;;;5.13;;
83199;SDS011;73092;49.132;8.920;2024-02-21T09:35:03;9.23;;;4.07;;
83199;SDS011;73092;49.132;8.920;2024-02-21T09:37:30;12.55;;;4.10;;
83199;SDS011;73092;49.132;8.920;2024-02-21T09:39:56;10.02;;;4.22;;
83199;SDS011;73092;49.132;8.920;2024-02-21T09:42:21;10.95;;;4.35;;
83199;SDS011;73092;49.132;8.920;2024-02-21T09:44:49;9.27;;;3.70;;
83199;SDS011;73092;49.132;8.920;2024-02-21T09:47:17;15.38;;;4.05;;
83199;SDS011;73092;49.132;8.920;2024-02-21T09:49:47;10.90;;;3.85;;
83199;SDS011;73092;49.132;8.920;2024-02-21T09:52:13;10.93;;;4.05;;
83199;SDS011;73092;49.132;8.920;2024-02-21T09:54:40;10.32;;;3.83;;
83199;SDS011;73092;49.132;8.920;2024-02-21T09:57:10;14.30;;;5.70;;
83199;SDS011;73092;49.132;8.920;2024-02-21T09:59:36;13.93;;;4.78;;
83199;SDS011;73092;49.132;8.920;2024-02-21T10:02:02;14.77;;;4.43;;
83199;SDS011;73092;49.132;8.920;2024-02-21T10:04:28;10.57;;;3.70;;
83199;SDS011;73092;49.132;8.920;2024-02-21T10:06:54;7.75;;;3.67;;
83199;SDS011;73092;49.132;8.920;2024-02-21T10:09:24;14.35;;;4.03;;
83199;SDS011;73092;49.132;8.920;2024-02-21T10:11:52;11.05;;;4.57;;
83199;SDS011;73092;49.132;8.920;2024-02-21T10:14:18;11.25;;;4.25;;
83199;SDS011;73092;49.132;8.920;2024-02-21T10:16:47;12.07;;;4.13;;
83199;SDS011;73092;49.132;8.920;2024-02-21T10:19:19;9.15;;;3.72;;
83199;SDS011;73092;49.132;8.920;2024-02-21T10:22:04;9.02;;;2.80;;
83199;SDS011;73092;49.132;8.920;2024-02-21T10:24:32;11.52;;;4.05;;
83199;SDS011;73092;49.132;8.920;2024-02-21T10:27:02;17.10;;;3.83;;
83199;SDS011;73092;49.132;8.920;2024-02-21T10:29:30;13.48;;;3.95;;
83199;SDS011;73092;49.132;8.920;2024-02-21T10:34:31;9.80;;;3.08;;
83199;SDS011;73092;49.132;8.920;2024-02-21T10:37:01;13.63;;;3.53;;
83199;SDS011;73092;49.132;8.920;2024-02-21T10:39:27;9.55;;;3.33;;
83199;SDS011;73092;49.132;8.920;2024-02-21T10:41:52;11.30;;;3.93;;
83199;SDS011;73092;49.132;8.920;2024-02-21T10:44:18;10.93;;;3.72;;
83199;SDS011;73092;49.132;8.920;2024-02-21T10:46:45;11.63;;;4.00;;
83199;SDS011;73092;49.132;8.920;2024-02-21T10:49:12;10.63;;;3.42;;
83199;SDS011;73092;49.132;8.920;2024-02-21T10:51:47;15.02;;;3.42;;
83199;SDS011;73092;49.132;8.920;2024-02-21T10:56:38;14.00;;;3.33;;
83199;SDS011;73092;49.132;8.920;2024-02-21T10:59:06;9.90;;;3.17;;
83199;SDS011;73092;49.132;8.920;2024-02-21T11:01:32;8.95;;;3.60;;
83199;SDS011;73092;49.132;8.920;2024-02-21T11:04:07;9.88;;;4.45;;
83199;SDS011;73092;49.132;8.920;2024-02-21T11:06:34;14.38;;;3.60;;
83199;SDS011;73092;49.132;8.920;2024-02-21T11:09:05;9.18;;;3.40;;
83199;SDS011;73092;49.132;8.920;2024-02-21T11:11:38;10.63;;;3.92;;
83199;SDS011;73092;49.132;8.920;2024-02-21T11:14:08;12.18;;;3.75;;
83199;SDS011;73092;49.132;8.920;2024-02-21T11:16:35;10.07;;;3.65;;
83199;SDS011;73092;49.132;8.920;2024-02-21T11:19:05;7.22;;;3.22;;
83199;SDS011;73092;49.132;8.920;2024-02-21T11:21:35;12.95;;;3.80;;
83199;SDS011;73092;49.132;8.920;2024-02-21T11:24:01;10.55;;;4.07;;
83199;SDS011;73092;49.132;8.920;2024-02-21T11:26:28;5.10;;;3.53;;
83199;SDS011;73092;49.132;8.920;2024-02-21T11:29:01;11.15;;;4.38;;
83199;SDS011;73092;49.132;8.920;2024-02-21T11:31:38;13.60;;;3.83;;
83199;SDS011;73092;49.132;8.920;2024-02-21T11:34:05;9.35;;;3.38;;
83199;SDS011;73092;49.132;8.920;2024-02-21T11:36:33;11.75;;;3.70;;
83199;SDS011;73092;49.132;8.920;2024-02-21T11:39:04;15.93;;;3.88;;
83199;SDS011;73092;49.132;8.920;2024-02-21T11:41:30;16.00;;;3.97;;
83199;SDS011;73092;49.132;8.920;2024-02-21T11:43:56;11.43;;;4.25;;
83199;SDS011;73092;49.132;8.920;2024-02-21T11:46:22;8.65;;;4.13;;
83199;SDS011;73092;49.132;8.920;2024-02-21T11:48:48;10.23;;;3.85;;
83199;SDS011;73092;49.132;8.920;2024-02-21T11:51:21;12.85;;;3.88;;
83199;SDS011;73092;49.132;8.920;2024-02-21T11:53:50;10.15;;;3.47;;
83199;SDS011;73092;49.132;8.920;2024-02-21T11:56:17;10.60;;;4.50;;
83199;SDS011;73092;49.132;8.920;2024-02-21T11:58:43;13.68;;;4.40;;
83199;SDS011;73092;49.132;8.920;2024-02-21T12:01:08;9.47;;;3.50;;
83199;SDS011;73092;49.132;8.920;2024-02-21T12:03:34;9.55;;;3.80;;
83199;SDS011;73092;49.132;8.920;2024-02-21T12:06:01;10.82;;;4.35;;
83199;SDS011;73092;49.132;8.920;2024-02-21T12:08:28;9.45;;;4.00;;
83199;SDS011;73092;49.132;8.920;2024-02-21T12:11:15;8.40;;;3.70;;
83199;SDS011;73092;49.132;8.920;2024-02-21T12:13:42;15.75;;;3.85;;
83199;SDS011;73092;49.132;8.920;2024-02-21T12:16:07;7.90;;;3.73;;
83199;SDS011;73092;49.132;8.920;2024-02-21T12:18:32;10.90;;;3.45;;
83199;SDS011;73092;49.132;8.920;2024-02-21T12:20:58;12.93;;;3.73;;
83199;SDS011;73092;49.132;8.920;2024-02-21T12:23:26;11.93;;;4.22;;
83199;SDS011;73092;49.132;8.920;2024-02-21T12:25:52;12.02;;;3.78;;
83199;SDS011;73092;49.132;8.920;2024-02-21T12:28:20;11.05;;;4.05;;
83199;SDS011;73092;49.132;8.920;2024-02-21T12:30:47;9.82;;;3.72;;
83199;SDS011;73092;49.132;8.920;2024-02-21T12:33:12;13.93;;;4.18;;
83199;SDS011;73092;49.132;8.920;2024-02-21T12:35:39;7.10;;;3.22;;
83199;SDS011;73092;49.132;8.920;2024-02-21T12:38:04;11.03;;;3.47;;
83199;SDS011;73092;49.132;8.920;2024-02-21T12:40:30;7.10;;;4.00;;
83199;SDS011;73092;49.132;8.920;2024-02-21T12:42:59;11.25;;;4.22;;
83199;SDS011;73092;49.132;8.920;2024-02-21T12:45:25;14.60;;;4.53;;
83199;SDS011;73092;49.132;8.920;2024-02-21T12:47:51;8.75;;;3.08;;
83199;SDS011;73092;49.132;8.920;2024-02-21T12:50:16;20.37;;;4.43;;
83199;SDS011;73092;49.132;8.920;2024-02-21T12:52:42;5.93;;;3.07;;
83199;SDS011;73092;49.132;8.920;2024-02-21T12:55:07;13.65;;;4.65;;
83199;SDS011;73092;49.132;8.920;2024-02-21T12:57:35;14.48;;;3.75;;
83199;SDS011;73092;49.132;8.920;2024-02-21T13:00:02;8.48;;;3.13;;
83199;SDS011;73092;49.132;8.920;2024-02-21T13:02:28;12.98;;;3.65;;
83199;SDS011;73092;49.132;8.920;2024-02-21T13:04:54;16.92;;;4.25;;
83199;SDS011;73092;49.132;8.920;2024-02-21T13:07:19;10.63;;;3.40;;
83199;SDS011;73092;49.132;8.920;2024-02-21T13:09:44;8.47;;;4.37;;
83199;SDS011;73092;49.132;8.920;2024-02-21T13:12:10;7.00;;;3.47;;
83199;SDS011;73092;49.132;8.920;2024-02-21T13:14:35;14.95;;;3.95;;
83199;SDS011;73092;49.132;8.920;2024-02-21T13:17:03;9.05;;;4.05;;
83199;SDS011;73092;49.132;8.920;2024-02-21T13:19:29;9.32;;;3.65;;
83199;SDS011;73092;49.132;8.920;2024-02-21T13:21:54;7.60;;;3.23;;
83199;SDS011;73092;49.132;8.920;2024-02-21T13:24:19;12.17;;;3.77;;
83199;SDS011;73092;49.132;8.920;2024-02-21T13:26:45;12.60;;;3.33;;
83199;SDS011;73092;49.132;8.920;2024-02-21T13:29:10;7.17;;;3.30;;
83199;SDS011;73092;49.132;8.920;2024-02-21T13:31:36;15.68;;;4.45;;
83199;SDS011;73092;49.132;8.920;2024-02-21T13:34:01;13.40;;;4.23;;
83199;SDS011;73092;49.132;8.920;2024-02-21T13:36:26;8.80;;;3.07;;
83199;SDS011;73092;49.132;8.920;2024-02-21T13:38:52;11.20;;;3.40;;
83199;SDS011;73092;49.132;8.920;2024-02-21T13:41:18;13.45;;;4.10;;
83199;SDS011;73092;49.132;8.920;2024-02-21T13:43:43;8.07;;;3.78;;
83199;SDS011;73092;49.132;8.920;2024-02-21T13:46:08;8.32;;;3.67;;
83199;SDS011;73092;49.132;8.920;2024-02-21T13:48:36;8.13;;;3.50;;
83199;SDS011;73092;49.132;8.920;2024-02-21T13:51:02;9.27;;;3.90;;
83199;SDS011;73092;49.132;8.920;2024-02-21T13:53:28;9.07;;;4.50;;
83199;SDS011;73092;49.132;8.920;2024-02-21T13:55:53;13.82;;;3.90;;
83199;SDS011;73092;49.132;8.920;2024-02-21T13:58:19;11.60;;;3.95;;
83199;SDS011;73092;49.132;8.920;2024-02-21T14:00:45;14.05;;;3.45;;
83199;SDS011;73092;49.132;8.920;2024-02-21T14:03:10;10.85;;;3.63;;
83199;SDS011;73092;49.132;8.920;2024-02-21T14:05:36;13.70;;;3.33;;
83199;SDS011;73092;49.132;8.920;2024-02-21T14:08:01;12.33;;;3.67;;
83199;SDS011;73092;49.132;8.920;2024-02-21T14:10:26;15.02;;;3.80;;
83199;SDS011;73092;49.132;8.920;2024-02-21T14:12:53;9.00;;;3.25;;
83199;SDS011;73092;49.132;8.920;2024-02-21T14:15:19;15.80;;;4.20;;
83199;SDS011;73092;49.132;8.920;2024-02-21T14:17:44;11.70;;;3.50;;
83199;SDS011;73092;49.132;8.920;2024-02-21T14:20:10;11.73;;;3.63;;
83199;SDS011;73092;49.132;8.920;2024-02-21T14:22:35;12.32;;;4.18;;
83199;SDS011;73092;49.132;8.920;2024-02-21T14:25:02;10.70;;;3.22;;
83199;SDS011;73092;49.132;8.920;2024-02-21T14:27:30;11.77;;;4.32;;
83199;SDS011;73092;49.132;8.920;2024-02-21T14:29:56;16.30;;;4.35;;
83199;SDS011;73092;49.132;8.920;2024-02-21T14:32:21;9.90;;;3.33;;
83199;SDS011;73092;49.132;8.920;2024-02-21T14:34:46;10.05;;;3.55;;
83199;SDS011;73092;49.132;8.920;2024-02-21T14:37:12;8.75;;;3.28;;
83199;SDS011;73092;49.132;8.920;2024-02-21T14:39:37;11.47;;;3.43;;